sensor_id;sensor_type;location;lat;lon;timestamp;P1;durP1;ratioP1;P2;durP2;ratioP2
24761;SDS011;12865;51.934;10.330;2023-06-05T00:00:20;2.60;;;2.22;;
24761;SDS011;12865;51.934;10.330;2023-06-05T00:03:06;4.13;;;2.10;;
24761;SDS011;12865;51.934;10.330;2023-06-05T00:05:52;4.47;;;2.10;;
24761;SDS011;12865;51.934;10.330;2023-06-05T00:08:38;2.60;;;1.65;;
24761;SDS011;12865;51.934;10.330;2023-06-05T00:11:23;2.55;;;2.00;;
24761;SDS011;12865;51.934;10.330;2023-06-05T00:14:10;1.92;;;1.55;;
24761;SDS011;12865;51.934;10.330;2023-06-05T00:16:56;2.90;;;2.08;;
24761;SDS011;12865;51.934;10.330;2023-06-05T00:19:42;4.40;;;2.15;;
24761;SDS011;12865;51.934;10.330;2023-06-05T00:22:28;2.15;;;1.95;;
24761;SDS011;12865;51.934;10.330;2023-06-05T00:25:16;4.30;;;2.13;;
24761;SDS011;12865;51.934;10.330;2023-06-05T00:28:02;3.03;;;2.05;;
24761;SDS011;12865;51.934;10.330;2023-06-05T00:30:48;2.42;;;1.80;;
24761;SDS011;12865;51.934;10.330;2023-06-05T00:33:33;2.63;;;2.42;;
24761;SDS011;12865;51.934;10.330;2023-06-05T00:36:19;1.95;;;1.80;;
24761;SDS011;12865;51.934;10.330;2023-06-05T00:39:07;2.80;;;2.22;;
24761;SDS011;12865;51.934;10.330;2023-06-05T00:41:54;2.50;;;1.90;;
24761;SDS011;12865;51.934;10.330;2023-06-05T00:44:40;3.05;;;2.00;;
24761;SDS011;12865;51.934;10.330;2023-06-05T00:47:25;1.95;;;1.85;;
24761;SDS011;12865;51.934;10.330;2023-06-05T00:50:12;3.45;;;1.85;;
24761;SDS011;12865;51.934;10.330;2023-06-05T00:53:01;2.90;;;2.00;;
24761;SDS011;12865;51.934;10.330;2023-06-05T00:55:47;2.08;;;1.60;;
24761;SDS011;12865;51.934;10.330;2023-06-05T00:58:32;2.85;;;1.80;;
24761;SDS011;12865;51.934;10.330;2023-06-05T01:01:18;2.10;;;1.90;;
24761;SDS011;12865;51.934;10.330;2023-06-05T01:04:06;4.85;;;2.63;;
24761;SDS011;12865;51.934;10.330;2023-06-05T01:06:51;3.13;;;1.88;;
24761;SDS011;12865;51.934;10.330;2023-06-05T01:09:38;1.85;;;1.75;;
24761;SDS011;12865;51.934;10.330;2023-06-05T01:12:26;2.35;;;2.00;;
24761;SDS011;12865;51.934;10.330;2023-06-05T01:15:18;2.33;;;1.98;;
24761;SDS011;12865;51.934;10.330;2023-06-05T01:18:13;3.42;;;1.73;;
24761;SDS011;12865;51.934;10.330;2023-06-05T01:21:03;3.20;;;1.80;;
24761;SDS011;12865;51.934;10.330;2023-06-05T01:23:49;2.10;;;1.80;;
24761;SDS011;12865;51.934;10.330;2023-06-05T01:26:51;2.13;;;1.92;;
24761;SDS011;12865;51.934;10.330;2023-06-05T01:29:49;3.67;;;2.15;;
24761;SDS011;12865;51.934;10.330;2023-06-05T01:35:57;2.05;;;1.80;;
24761;SDS011;12865;51.934;10.330;2023-06-05T01:38:50;1.90;;;1.80;;
24761;SDS011;12865;51.934;10.330;2023-06-05T01:41:39;2.42;;;1.90;;
24761;SDS011;12865;51.934;10.330;2023-06-05T01:44:26;3.35;;;1.98;;
24761;SDS011;12865;51.934;10.330;2023-06-05T01:47:12;4.50;;;2.22;;
24761;SDS011;12865;51.934;10.330;2023-06-05T01:49:58;2.67;;;2.10;;
24761;SDS011;12865;51.934;10.330;2023-06-05T01:52:44;1.92;;;1.75;;
24761;SDS011;12865;51.934;10.330;2023-06-05T01:55:33;5.35;;;1.98;;
24761;SDS011;12865;51.934;10.330;2023-06-05T01:58:20;3.00;;;2.03;;
24761;SDS011;12865;51.934;10.330;2023-06-05T02:01:06;2.88;;;1.83;;
24761;SDS011;12865;51.934;10.330;2023-06-05T02:03:53;1.77;;;1.67;;
24761;SDS011;12865;51.934;10.330;2023-06-05T02:06:39;2.17;;;1.98;;
24761;SDS011;12865;51.934;10.330;2023-06-05T02:09:29;2.50;;;1.90;;
24761;SDS011;12865;51.934;10.330;2023-06-05T02:12:17;3.63;;;2.00;;
24761;SDS011;12865;51.934;10.330;2023-06-05T02:15:04;4.20;;;1.90;;
24761;SDS011;12865;51.934;10.330;2023-06-05T02:17:50;3.35;;;1.90;;
24761;SDS011;12865;51.934;10.330;2023-06-05T02:20:40;2.70;;;1.90;;
24761;SDS011;12865;51.934;10.330;2023-06-05T02:23:26;2.15;;;1.70;;
24761;SDS011;12865;51.934;10.330;2023-06-05T02:26:11;2.38;;;1.90;;
24761;SDS011;12865;51.934;10.330;2023-06-05T02:28:57;3.00;;;1.88;;
24761;SDS011;12865;51.934;10.330;2023-06-05T02:31:43;2.20;;;2.00;;
24761;SDS011;12865;51.934;10.330;2023-06-05T02:34:29;4.18;;;2.03;;
24761;SDS011;12865;51.934;10.330;2023-06-05T02:37:14;4.20;;;1.90;;
24761;SDS011;12865;51.934;10.330;2023-06-05T02:40:00;2.35;;;1.60;;
24761;SDS011;12865;51.934;10.330;2023-06-05T02:42:46;3.50;;;2.00;;
24761;SDS011;12865;51.934;10.330;2023-06-05T02:45:34;2.03;;;1.80;;
24761;SDS011;12865;51.934;10.330;2023-06-05T02:48:20;3.83;;;2.00;;
24761;SDS011;12865;51.934;10.330;2023-06-05T02:51:08;3.53;;;2.15;;
24761;SDS011;12865;51.934;10.330;2023-06-05T02:53:56;4.40;;;2.38;;
24761;SDS011;12865;51.934;10.330;2023-06-05T02:56:42;5.95;;;1.90;;
24761;SDS011;12865;51.934;10.330;2023-06-05T02:59:29;4.70;;;1.90;;
24761;SDS011;12865;51.934;10.330;2023-06-05T03:02:17;2.15;;;1.70;;
24761;SDS011;12865;51.934;10.330;2023-06-05T03:05:03;2.40;;;1.80;;
24761;SDS011;12865;51.934;10.330;2023-06-05T03:07:49;4.20;;;2.10;;
24761;SDS011;12865;51.934;10.330;2023-06-05T03:10:38;2.55;;;2.03;;
24761;SDS011;12865;51.934;10.330;2023-06-05T03:13:24;2.70;;;1.70;;
24761;SDS011;12865;51.934;10.330;2023-06-05T03:16:09;2.63;;;1.83;;
24761;SDS011;12865;51.934;10.330;2023-06-05T03:18:56;2.20;;;2.00;;
24761;SDS011;12865;51.934;10.330;2023-06-05T03:21:41;2.15;;;1.98;;
24761;SDS011;12865;51.934;10.330;2023-06-05T03:24:28;4.30;;;1.90;;
24761;SDS011;12865;51.934;10.330;2023-06-05T03:27:14;2.40;;;2.20;;
24761;SDS011;12865;51.934;10.330;2023-06-05T03:29:59;1.88;;;1.70;;
24761;SDS011;12865;51.934;10.330;2023-06-05T03:32:45;3.85;;;1.80;;
24761;SDS011;12865;51.934;10.330;2023-06-05T03:35:32;3.78;;;2.20;;
24761;SDS011;12865;51.934;10.330;2023-06-05T03:38:18;2.47;;;1.98;;
24761;SDS011;12865;51.934;10.330;2023-06-05T03:41:04;2.33;;;1.83;;
24761;SDS011;12865;51.934;10.330;2023-06-05T03:43:49;3.88;;;1.70;;
24761;SDS011;12865;51.934;10.330;2023-06-05T03:46:36;3.00;;;1.80;;
24761;SDS011;12865;51.934;10.330;2023-06-05T03:49:21;3.50;;;2.10;;
24761;SDS011;12865;51.934;10.330;2023-06-05T03:52:07;2.80;;;1.88;;
24761;SDS011;12865;51.934;10.330;2023-06-05T03:54:53;3.08;;;1.88;;
24761;SDS011;12865;51.934;10.330;2023-06-05T03:57:40;2.08;;;1.88;;
24761;SDS011;12865;51.934;10.330;2023-06-05T04:00:26;2.35;;;1.98;;
24761;SDS011;12865;51.934;10.330;2023-06-05T04:03:12;2.45;;;2.03;;
24761;SDS011;12865;51.934;10.330;2023-06-05T04:05:58;2.13;;;1.88;;
24761;SDS011;12865;51.934;10.330;2023-06-05T04:08:43;4.93;;;2.08;;
24761;SDS011;12865;51.934;10.330;2023-06-05T04:11:29;4.03;;;2.03;;
24761;SDS011;12865;51.934;10.330;2023-06-05T04:14:17;5.25;;;2.13;;
24761;SDS011;12865;51.934;10.330;2023-06-05T04:17:02;3.70;;;1.98;;
24761;SDS011;12865;51.934;10.330;2023-06-05T04:19:48;2.20;;;2.05;;
24761;SDS011;12865;51.934;10.330;2023-06-05T04:22:34;4.35;;;2.30;;
24761;SDS011;12865;51.934;10.330;2023-06-05T04:25:20;2.83;;;1.80;;
24761;SDS011;12865;51.934;10.330;2023-06-05T04:28:06;3.65;;;1.92;;
24761;SDS011;12865;51.934;10.330;2023-06-05T04:30:52;2.22;;;1.80;;
24761;SDS011;12865;51.934;10.330;2023-06-05T04:33:37;3.22;;;2.05;;
24761;SDS011;12865;51.934;10.330;2023-06-05T04:36:24;5.55;;;2.28;;
24761;SDS011;12865;51.934;10.330;2023-06-05T04:39:11;2.65;;;2.03;;
24761;SDS011;12865;51.934;10.330;2023-06-05T04:41:59;3.08;;;2.05;;
24761;SDS011;12865;51.934;10.330;2023-06-05T04:44:53;5.20;;;2.17;;
24761;SDS011;12865;51.934;10.330;2023-06-05T04:47:49;4.75;;;2.13;;
24761;SDS011;12865;51.934;10.330;2023-06-05T04:50:35;3.08;;;2.25;;
24761;SDS011;12865;51.934;10.330;2023-06-05T04:53:22;2.63;;;1.83;;
24761;SDS011;12865;51.934;10.330;2023-06-05T04:56:08;2.67;;;2.10;;
24761;SDS011;12865;51.934;10.330;2023-06-05T04:58:54;3.65;;;2.42;;
24761;SDS011;12865;51.934;10.330;2023-06-05T05:01:40;2.25;;;1.88;;
24761;SDS011;12865;51.934;10.330;2023-06-05T05:04:26;4.18;;;2.00;;
24761;SDS011;12865;51.934;10.330;2023-06-05T05:07:12;6.65;;;2.22;;
24761;SDS011;12865;51.934;10.330;2023-06-05T05:10:00;6.50;;;2.30;;
24761;SDS011;12865;51.934;10.330;2023-06-05T05:12:47;2.45;;;2.25;;
24761;SDS011;12865;51.934;10.330;2023-06-05T05:15:32;6.70;;;2.20;;
24761;SDS011;12865;51.934;10.330;2023-06-05T05:18:18;4.53;;;2.22;;
24761;SDS011;12865;51.934;10.330;2023-06-05T05:21:04;4.22;;;2.58;;
24761;SDS011;12865;51.934;10.330;2023-06-05T05:23:51;3.13;;;2.45;;
24761;SDS011;12865;51.934;10.330;2023-06-05T05:26:37;3.90;;;2.63;;
24761;SDS011;12865;51.934;10.330;2023-06-05T05:29:24;4.40;;;2.25;;
24761;SDS011;12865;51.934;10.330;2023-06-05T05:32:11;3.25;;;2.25;;
24761;SDS011;12865;51.934;10.330;2023-06-05T05:34:57;4.75;;;2.53;;
24761;SDS011;12865;51.934;10.330;2023-06-05T05:37:42;4.30;;;2.40;;
24761;SDS011;12865;51.934;10.330;2023-06-05T05:40:28;2.90;;;2.30;;
24761;SDS011;12865;51.934;10.330;2023-06-05T05:43:14;3.45;;;2.53;;
24761;SDS011;12865;51.934;10.330;2023-06-05T05:46:00;6.57;;;3.00;;
24761;SDS011;12865;51.934;10.330;2023-06-05T05:48:46;4.57;;;2.42;;
24761;SDS011;12865;51.934;10.330;2023-06-05T05:51:32;7.40;;;2.50;;
24761;SDS011;12865;51.934;10.330;2023-06-05T05:54:19;2.97;;;2.42;;
24761;SDS011;12865;51.934;10.330;2023-06-05T05:57:07;7.90;;;2.20;;
24761;SDS011;12865;51.934;10.330;2023-06-05T05:59:53;4.20;;;2.28;;
24761;SDS011;12865;51.934;10.330;2023-06-05T06:02:40;6.10;;;3.08;;
24761;SDS011;12865;51.934;10.330;2023-06-05T06:05:26;3.20;;;2.90;;
24761;SDS011;12865;51.934;10.330;2023-06-05T06:08:12;3.22;;;2.63;;
24761;SDS011;12865;51.934;10.330;2023-06-05T06:10:58;5.50;;;3.20;;
24761;SDS011;12865;51.934;10.330;2023-06-05T06:13:43;4.53;;;3.15;;
24761;SDS011;12865;51.934;10.330;2023-06-05T06:16:29;7.30;;;3.30;;
24761;SDS011;12865;51.934;10.330;2023-06-05T06:19:15;3.67;;;3.08;;
24761;SDS011;12865;51.934;10.330;2023-06-05T06:22:01;4.82;;;3.00;;
24761;SDS011;12865;51.934;10.330;2023-06-05T06:24:47;5.55;;;3.00;;
24761;SDS011;12865;51.934;10.330;2023-06-05T06:27:33;6.45;;;3.22;;
24761;SDS011;12865;51.934;10.330;2023-06-05T06:30:19;3.67;;;2.80;;
24761;SDS011;12865;51.934;10.330;2023-06-05T06:33:05;6.07;;;3.05;;
24761;SDS011;12865;51.934;10.330;2023-06-05T06:35:50;4.80;;;3.08;;
24761;SDS011;12865;51.934;10.330;2023-06-05T06:38:37;4.40;;;2.85;;
24761;SDS011;12865;51.934;10.330;2023-06-05T06:41:22;6.93;;;3.30;;
24761;SDS011;12865;51.934;10.330;2023-06-05T06:44:08;3.80;;;3.10;;
24761;SDS011;12865;51.934;10.330;2023-06-05T06:46:54;4.22;;;2.88;;
24761;SDS011;12865;51.934;10.330;2023-06-05T06:49:39;5.57;;;2.92;;
24761;SDS011;12865;51.934;10.330;2023-06-05T06:52:26;5.70;;;2.95;;
24761;SDS011;12865;51.934;10.330;2023-06-05T06:55:11;5.20;;;3.13;;
24761;SDS011;12865;51.934;10.330;2023-06-05T06:57:57;3.45;;;3.00;;
24761;SDS011;12865;51.934;10.330;2023-06-05T07:00:43;3.40;;;3.08;;
24761;SDS011;12865;51.934;10.330;2023-06-05T07:03:29;3.63;;;2.63;;
24761;SDS011;12865;51.934;10.330;2023-06-05T07:06:15;4.63;;;2.95;;
24761;SDS011;12865;51.934;10.330;2023-06-05T07:09:01;5.53;;;2.97;;
24761;SDS011;12865;51.934;10.330;2023-06-05T07:11:47;5.38;;;2.92;;
24761;SDS011;12865;51.934;10.330;2023-06-05T07:14:32;5.78;;;2.75;;
24761;SDS011;12865;51.934;10.330;2023-06-05T07:17:21;10.93;;;2.78;;
24761;SDS011;12865;51.934;10.330;2023-06-05T07:20:06;6.57;;;2.88;;
24761;SDS011;12865;51.934;10.330;2023-06-05T07:22:54;4.38;;;2.50;;
24761;SDS011;12865;51.934;10.330;2023-06-05T07:25:40;4.13;;;2.60;;
24761;SDS011;12865;51.934;10.330;2023-06-05T07:28:28;3.20;;;2.67;;
24761;SDS011;12865;51.934;10.330;2023-06-05T07:31:14;4.85;;;2.88;;
24761;SDS011;12865;51.934;10.330;2023-06-05T07:34:00;4.10;;;2.40;;
24761;SDS011;12865;51.934;10.330;2023-06-05T07:36:46;4.40;;;2.88;;
24761;SDS011;12865;51.934;10.330;2023-06-05T07:39:33;3.47;;;2.80;;
24761;SDS011;12865;51.934;10.330;2023-06-05T07:42:19;4.80;;;2.58;;
24761;SDS011;12865;51.934;10.330;2023-06-05T07:45:05;4.18;;;3.13;;
24761;SDS011;12865;51.934;10.330;2023-06-05T07:47:51;5.32;;;3.05;;
24761;SDS011;12865;51.934;10.330;2023-06-05T07:50:37;4.18;;;2.60;;
24761;SDS011;12865;51.934;10.330;2023-06-05T07:53:23;3.05;;;2.20;;
24761;SDS011;12865;51.934;10.330;2023-06-05T07:56:09;3.38;;;3.03;;
24761;SDS011;12865;51.934;10.330;2023-06-05T07:58:57;6.90;;;2.20;;
24761;SDS011;12865;51.934;10.330;2023-06-05T08:01:42;6.45;;;2.83;;
24761;SDS011;12865;51.934;10.330;2023-06-05T08:04:28;2.45;;;2.22;;
24761;SDS011;12865;51.934;10.330;2023-06-05T08:07:14;4.30;;;2.53;;
24761;SDS011;12865;51.934;10.330;2023-06-05T08:09:59;4.50;;;2.00;;
24761;SDS011;12865;51.934;10.330;2023-06-05T08:12:45;2.95;;;2.35;;
24761;SDS011;12865;51.934;10.330;2023-06-05T08:15:31;3.10;;;2.58;;
24761;SDS011;12865;51.934;10.330;2023-06-05T08:18:16;5.00;;;2.20;;
24761;SDS011;12865;51.934;10.330;2023-06-05T08:21:02;5.32;;;2.45;;
24761;SDS011;12865;51.934;10.330;2023-06-05T08:23:48;4.15;;;2.28;;
24761;SDS011;12865;51.934;10.330;2023-06-05T08:26:34;2.45;;;2.13;;
24761;SDS011;12865;51.934;10.330;2023-06-05T08:29:20;5.78;;;2.45;;
24761;SDS011;12865;51.934;10.330;2023-06-05T08:32:06;3.10;;;2.10;;
24761;SDS011;12865;51.934;10.330;2023-06-05T08:34:51;3.30;;;2.30;;
24761;SDS011;12865;51.934;10.330;2023-06-05T08:37:37;3.08;;;2.53;;
24761;SDS011;12865;51.934;10.330;2023-06-05T08:40:25;4.85;;;2.60;;
24761;SDS011;12865;51.934;10.330;2023-06-05T08:43:14;4.82;;;2.58;;
24761;SDS011;12865;51.934;10.330;2023-06-05T08:45:59;4.78;;;2.38;;
24761;SDS011;12865;51.934;10.330;2023-06-05T08:48:46;2.40;;;2.20;;
24761;SDS011;12865;51.934;10.330;2023-06-05T08:51:36;5.13;;;2.25;;
24761;SDS011;12865;51.934;10.330;2023-06-05T08:54:23;7.38;;;2.53;;
24761;SDS011;12865;51.934;10.330;2023-06-05T08:57:13;5.53;;;2.30;;
24761;SDS011;12865;51.934;10.330;2023-06-05T08:59:59;4.13;;;2.10;;
24761;SDS011;12865;51.934;10.330;2023-06-05T09:02:46;3.35;;;2.63;;
24761;SDS011;12865;51.934;10.330;2023-06-05T09:05:34;5.20;;;2.90;;
24761;SDS011;12865;51.934;10.330;2023-06-05T09:08:30;4.32;;;2.30;;
24761;SDS011;12865;51.934;10.330;2023-06-05T09:11:21;6.20;;;2.50;;
24761;SDS011;12865;51.934;10.330;2023-06-05T09:14:10;3.90;;;2.20;;
24761;SDS011;12865;51.934;10.330;2023-06-05T09:16:58;4.10;;;1.95;;
24761;SDS011;12865;51.934;10.330;2023-06-05T09:19:44;4.03;;;1.98;;
24761;SDS011;12865;51.934;10.330;2023-06-05T09:22:32;2.92;;;1.80;;
24761;SDS011;12865;51.934;10.330;2023-06-05T09:25:21;3.00;;;2.10;;
24761;SDS011;12865;51.934;10.330;2023-06-05T09:28:07;2.63;;;2.10;;
24761;SDS011;12865;51.934;10.330;2023-06-05T09:30:59;3.03;;;2.15;;
24761;SDS011;12865;51.934;10.330;2023-06-05T09:33:55;4.05;;;2.20;;
24761;SDS011;12865;51.934;10.330;2023-06-05T09:36:44;4.85;;;2.45;;
24761;SDS011;12865;51.934;10.330;2023-06-05T09:39:32;3.58;;;2.10;;
24761;SDS011;12865;51.934;10.330;2023-06-05T09:42:30;4.63;;;2.22;;
24761;SDS011;12865;51.934;10.330;2023-06-05T09:45:17;3.72;;;2.20;;
24761;SDS011;12865;51.934;10.330;2023-06-05T09:48:12;4.35;;;1.90;;
24761;SDS011;12865;51.934;10.330;2023-06-05T09:51:07;4.03;;;1.95;;
24761;SDS011;12865;51.934;10.330;2023-06-05T09:54:03;2.85;;;1.98;;
24761;SDS011;12865;51.934;10.330;2023-06-05T09:56:29;4.43;;;2.20;;
24761;SDS011;12865;51.934;10.330;2023-06-05T09:58:56;1.75;;;1.65;;
24761;SDS011;12865;51.934;10.330;2023-06-05T10:01:22;2.45;;;2.17;;
24761;SDS011;12865;51.934;10.330;2023-06-05T10:06:22;3.08;;;2.00;;
24761;SDS011;12865;51.934;10.330;2023-06-05T10:08:52;2.45;;;2.22;;
24761;SDS011;12865;51.934;10.330;2023-06-05T10:11:18;2.85;;;2.00;;
24761;SDS011;12865;51.934;10.330;2023-06-05T10:13:46;3.22;;;2.30;;
24761;SDS011;12865;51.934;10.330;2023-06-05T10:16:13;3.67;;;1.90;;
24761;SDS011;12865;51.934;10.330;2023-06-05T10:18:38;5.35;;;1.80;;
24761;SDS011;12865;51.934;10.330;2023-06-05T10:21:04;3.45;;;2.13;;
24761;SDS011;12865;51.934;10.330;2023-06-05T10:23:31;1.45;;;1.35;;
24761;SDS011;12865;51.934;10.330;2023-06-05T10:25:58;3.90;;;1.95;;
24761;SDS011;12865;51.934;10.330;2023-06-05T10:33:59;1.73;;;1.63;;
24761;SDS011;12865;51.934;10.330;2023-06-05T10:39:39;2.63;;;1.83;;
24761;SDS011;12865;51.934;10.330;2023-06-05T10:42:05;6.18;;;3.35;;
24761;SDS011;12865;51.934;10.330;2023-06-05T10:44:43;4.57;;;2.85;;
24761;SDS011;12865;51.934;10.330;2023-06-05T10:52:46;2.20;;;2.00;;
24761;SDS011;12865;51.934;10.330;2023-06-05T10:55:13;3.42;;;2.33;;
24761;SDS011;12865;51.934;10.330;2023-06-05T11:00:26;4.20;;;2.75;;
24761;SDS011;12865;51.934;10.330;2023-06-05T11:02:52;3.88;;;3.00;;
24761;SDS011;12865;51.934;10.330;2023-06-05T11:05:18;4.28;;;2.78;;
24761;SDS011;12865;51.934;10.330;2023-06-05T11:07:45;3.58;;;3.17;;
24761;SDS011;12865;51.934;10.330;2023-06-05T11:15:11;3.97;;;3.22;;
24761;SDS011;12865;51.934;10.330;2023-06-05T11:17:44;4.07;;;2.90;;
24761;SDS011;12865;51.934;10.330;2023-06-05T11:27:58;5.53;;;3.30;;
24761;SDS011;12865;51.934;10.330;2023-06-05T11:30:27;5.53;;;3.72;;
24761;SDS011;12865;51.934;10.330;2023-06-05T11:32:57;7.78;;;3.15;;
24761;SDS011;12865;51.934;10.330;2023-06-05T11:35:31;3.75;;;2.92;;
24761;SDS011;12865;51.934;10.330;2023-06-05T11:38:11;3.20;;;2.90;;
24761;SDS011;12865;51.934;10.330;2023-06-05T11:40:38;3.90;;;2.70;;
24761;SDS011;12865;51.934;10.330;2023-06-05T11:43:08;4.05;;;2.53;;
24761;SDS011;12865;51.934;10.330;2023-06-05T11:45:35;2.63;;;2.42;;
24761;SDS011;12865;51.934;10.330;2023-06-05T11:48:08;2.75;;;2.40;;
24761;SDS011;12865;51.934;10.330;2023-06-05T11:50:35;2.50;;;2.28;;
24761;SDS011;12865;51.934;10.330;2023-06-05T11:53:05;4.80;;;2.63;;
24761;SDS011;12865;51.934;10.330;2023-06-05T11:55:34;2.92;;;2.42;;
24761;SDS011;12865;51.934;10.330;2023-06-05T11:58:26;3.15;;;2.90;;
24761;SDS011;12865;51.934;10.330;2023-06-05T12:01:03;3.95;;;2.60;;
24761;SDS011;12865;51.934;10.330;2023-06-05T12:03:43;3.65;;;2.50;;
24761;SDS011;12865;51.934;10.330;2023-06-05T12:06:10;2.67;;;2.45;;
24761;SDS011;12865;51.934;10.330;2023-06-05T12:08:39;2.55;;;2.35;;
24761;SDS011;12865;51.934;10.330;2023-06-05T12:11:22;2.25;;;2.15;;
24761;SDS011;12865;51.934;10.330;2023-06-05T12:13:51;4.10;;;2.55;;
24761;SDS011;12865;51.934;10.330;2023-06-05T12:16:18;2.50;;;2.30;;
24761;SDS011;12865;51.934;10.330;2023-06-05T12:18:45;2.45;;;2.25;;
24761;SDS011;12865;51.934;10.330;2023-06-05T12:21:22;4.03;;;2.10;;
24761;SDS011;12865;51.934;10.330;2023-06-05T12:23:49;8.60;;;2.53;;
24761;SDS011;12865;51.934;10.330;2023-06-05T12:26:16;3.83;;;2.35;;
24761;SDS011;12865;51.934;10.330;2023-06-05T12:28:42;2.65;;;1.90;;
24761;SDS011;12865;51.934;10.330;2023-06-05T12:31:09;2.20;;;2.05;;
24761;SDS011;12865;51.934;10.330;2023-06-05T12:33:45;2.33;;;2.05;;
24761;SDS011;12865;51.934;10.330;2023-06-05T12:36:11;2.05;;;1.85;;
24761;SDS011;12865;51.934;10.330;2023-06-05T12:38:38;5.15;;;2.30;;
24761;SDS011;12865;51.934;10.330;2023-06-05T12:41:07;2.78;;;2.03;;
24761;SDS011;12865;51.934;10.330;2023-06-05T12:43:33;2.80;;;1.92;;
24761;SDS011;12865;51.934;10.330;2023-06-05T12:45:59;2.40;;;2.00;;
24761;SDS011;12865;51.934;10.330;2023-06-05T12:48:24;4.43;;;2.33;;
24761;SDS011;12865;51.934;10.330;2023-06-05T12:50:50;5.07;;;1.98;;
24761;SDS011;12865;51.934;10.330;2023-06-05T12:53:16;4.97;;;2.30;;
24761;SDS011;12865;51.934;10.330;2023-06-05T12:55:41;2.17;;;1.98;;
24761;SDS011;12865;51.934;10.330;2023-06-05T12:58:07;4.28;;;2.03;;
24761;SDS011;12865;51.934;10.330;2023-06-05T13:00:32;2.17;;;1.58;;
24761;SDS011;12865;51.934;10.330;2023-06-05T13:02:59;2.75;;;1.88;;
24761;SDS011;12865;51.934;10.330;2023-06-05T13:05:24;2.90;;;1.65;;
24761;SDS011;12865;51.934;10.330;2023-06-05T13:07:49;5.57;;;2.20;;
24761;SDS011;12865;51.934;10.330;2023-06-05T13:10:16;2.58;;;2.00;;
24761;SDS011;12865;51.934;10.330;2023-06-05T13:12:42;4.20;;;2.05;;
24761;SDS011;12865;51.934;10.330;2023-06-05T13:15:08;3.70;;;2.17;;
24761;SDS011;12865;51.934;10.330;2023-06-05T13:17:34;3.60;;;2.05;;
24761;SDS011;12865;51.934;10.330;2023-06-05T13:20:01;2.28;;;2.03;;
24761;SDS011;12865;51.934;10.330;2023-06-05T13:22:31;2.70;;;1.85;;
24761;SDS011;12865;51.934;10.330;2023-06-05T13:24:56;3.22;;;2.95;;
24761;SDS011;12865;51.934;10.330;2023-06-05T13:27:22;2.50;;;2.13;;
24761;SDS011;12865;51.934;10.330;2023-06-05T13:29:47;2.35;;;2.00;;
24761;SDS011;12865;51.934;10.330;2023-06-05T13:32:12;1.85;;;1.63;;
24761;SDS011;12865;51.934;10.330;2023-06-05T13:34:38;4.13;;;2.05;;
24761;SDS011;12865;51.934;10.330;2023-06-05T13:37:03;2.90;;;2.60;;
24761;SDS011;12865;51.934;10.330;2023-06-05T13:39:28;3.38;;;2.13;;
24761;SDS011;12865;51.934;10.330;2023-06-05T13:41:54;2.17;;;1.77;;
24761;SDS011;12865;51.934;10.330;2023-06-05T13:44:38;2.60;;;2.40;;
24761;SDS011;12865;51.934;10.330;2023-06-05T13:47:24;2.30;;;2.08;;
24761;SDS011;12865;51.934;10.330;2023-06-05T13:50:10;2.92;;;2.17;;
24761;SDS011;12865;51.934;10.330;2023-06-05T13:52:56;3.63;;;2.10;;
24761;SDS011;12865;51.934;10.330;2023-06-05T13:55:41;2.60;;;2.00;;
24761;SDS011;12865;51.934;10.330;2023-06-05T13:58:27;2.85;;;2.20;;
24761;SDS011;12865;51.934;10.330;2023-06-05T14:01:13;2.17;;;1.85;;
24761;SDS011;12865;51.934;10.330;2023-06-05T14:03:58;2.95;;;2.33;;
24761;SDS011;12865;51.934;10.330;2023-06-05T14:06:44;5.93;;;2.83;;
24761;SDS011;12865;51.934;10.330;2023-06-05T14:09:30;3.25;;;2.00;;
24761;SDS011;12865;51.934;10.330;2023-06-05T14:12:16;2.30;;;2.10;;
24761;SDS011;12865;51.934;10.330;2023-06-05T14:15:03;3.60;;;2.30;;
24761;SDS011;12865;51.934;10.330;2023-06-05T14:17:49;2.30;;;2.10;;
24761;SDS011;12865;51.934;10.330;2023-06-05T14:20:35;2.38;;;2.00;;
24761;SDS011;12865;51.934;10.330;2023-06-05T14:23:21;3.53;;;1.98;;
24761;SDS011;12865;51.934;10.330;2023-06-05T14:26:08;3.80;;;2.47;;
24761;SDS011;12865;51.934;10.330;2023-06-05T14:28:54;2.78;;;2.20;;
24761;SDS011;12865;51.934;10.330;2023-06-05T14:31:40;2.63;;;2.10;;
24761;SDS011;12865;51.934;10.330;2023-06-05T14:34:26;4.55;;;2.17;;
24761;SDS011;12865;51.934;10.330;2023-06-05T14:37:11;3.38;;;2.13;;
24761;SDS011;12865;51.934;10.330;2023-06-05T14:39:57;2.53;;;2.10;;
24761;SDS011;12865;51.934;10.330;2023-06-05T14:42:43;3.72;;;2.20;;
24761;SDS011;12865;51.934;10.330;2023-06-05T14:45:29;2.15;;;1.90;;
24761;SDS011;12865;51.934;10.330;2023-06-05T14:48:15;3.08;;;1.92;;
24761;SDS011;12865;51.934;10.330;2023-06-05T14:51:01;2.75;;;2.00;;
24761;SDS011;12865;51.934;10.330;2023-06-05T14:53:46;2.75;;;2.10;;
24761;SDS011;12865;51.934;10.330;2023-06-05T14:56:32;2.42;;;2.20;;
24761;SDS011;12865;51.934;10.330;2023-06-05T14:59:18;4.95;;;2.28;;
24761;SDS011;12865;51.934;10.330;2023-06-05T15:02:04;3.00;;;2.13;;
24761;SDS011;12865;51.934;10.330;2023-06-05T15:04:50;2.63;;;2.22;;
24761;SDS011;12865;51.934;10.330;2023-06-05T15:07:37;2.00;;;1.77;;
24761;SDS011;12865;51.934;10.330;2023-06-05T15:10:25;1.77;;;1.67;;
24761;SDS011;12865;51.934;10.330;2023-06-05T15:13:12;3.65;;;2.20;;
24761;SDS011;12865;51.934;10.330;2023-06-05T15:15:57;4.43;;;2.30;;
24761;SDS011;12865;51.934;10.330;2023-06-05T15:18:46;2.38;;;2.00;;
24761;SDS011;12865;51.934;10.330;2023-06-05T15:21:32;4.35;;;2.10;;
24761;SDS011;12865;51.934;10.330;2023-06-05T15:24:17;2.55;;;2.35;;
24761;SDS011;12865;51.934;10.330;2023-06-05T15:27:03;4.38;;;2.05;;
24761;SDS011;12865;51.934;10.330;2023-06-05T15:29:49;3.33;;;2.05;;
24761;SDS011;12865;51.934;10.330;2023-06-05T15:32:34;3.60;;;2.28;;
24761;SDS011;12865;51.934;10.330;2023-06-05T15:35:20;3.58;;;2.40;;
24761;SDS011;12865;51.934;10.330;2023-06-05T15:38:06;4.03;;;2.20;;
24761;SDS011;12865;51.934;10.330;2023-06-05T15:40:51;3.33;;;2.63;;
24761;SDS011;12865;51.934;10.330;2023-06-05T15:43:37;4.28;;;2.33;;
24761;SDS011;12865;51.934;10.330;2023-06-05T15:46:24;5.05;;;2.42;;
24761;SDS011;12865;51.934;10.330;2023-06-05T15:49:09;3.83;;;2.25;;
24761;SDS011;12865;51.934;10.330;2023-06-05T15:51:55;3.75;;;2.30;;
24761;SDS011;12865;51.934;10.330;2023-06-05T15:54:41;2.50;;;2.15;;
24761;SDS011;12865;51.934;10.330;2023-06-05T15:57:26;3.05;;;2.00;;
24761;SDS011;12865;51.934;10.330;2023-06-05T16:00:12;2.72;;;2.25;;
24761;SDS011;12865;51.934;10.330;2023-06-05T16:02:58;2.47;;;2.10;;
24761;SDS011;12865;51.934;10.330;2023-06-05T16:05:44;3.90;;;2.28;;
24761;SDS011;12865;51.934;10.330;2023-06-05T16:08:30;4.70;;;2.15;;
24761;SDS011;12865;51.934;10.330;2023-06-05T16:11:16;3.70;;;2.50;;
24761;SDS011;12865;51.934;10.330;2023-06-05T16:14:02;2.65;;;2.33;;
24761;SDS011;12865;51.934;10.330;2023-06-05T16:16:47;5.00;;;2.08;;
24761;SDS011;12865;51.934;10.330;2023-06-05T16:19:33;4.97;;;2.15;;
24761;SDS011;12865;51.934;10.330;2023-06-05T16:22:19;4.75;;;2.60;;
24761;SDS011;12865;51.934;10.330;2023-06-05T16:25:05;2.65;;;2.40;;
24761;SDS011;12865;51.934;10.330;2023-06-05T16:27:50;3.85;;;2.25;;
24761;SDS011;12865;51.934;10.330;2023-06-05T16:30:36;3.90;;;2.20;;
24761;SDS011;12865;51.934;10.330;2023-06-05T16:33:22;3.55;;;2.05;;
24761;SDS011;12865;51.934;10.330;2023-06-05T16:36:07;2.60;;;2.03;;
24761;SDS011;12865;51.934;10.330;2023-06-05T16:38:55;3.50;;;2.28;;